CZ-0072 weather

BURANOS Aires UL
Central Bohemian Region, Czechia

Public forecast

Using degrees Celsius for public forecast. Weather courtesy of forecast.io.

Closest aviation weather report (METAR) to BURANOS Aires UL

Closest report is Václav Havel Airport Prague, 10.2 nm (18.8 km) ENE. Retrieved 2019/10/18 19:30 UTC (16 minutes ago):

LKPR 181930Z 23008KT CAVOK 13/09 Q1013 NOSIG

Closest aviation forecast (TAF) to BURANOS Aires UL

Closest forecast is Václav Havel Airport Prague, 10.2 nm (18.8 km) ENE. Retrieved 2019/10/18 18:06 UTC (2 hours ago):

TAF LKPR 181700Z 1818/2000 18006KT CAVOK PROB40 TEMPO 1818/1820 24014KT 9999 -SHRA FEW022TCU BKN030 TEMPO 1902/1908 VRB02KT 2500 BR SCT009